Time;durP1;ratioP1;P1;durP2;ratioP2;P2;SDS_P1;SDS_P2;PMS_P1;PMS_P2;Temp;Humidity;BMP_temperature;BMP_pressure;BME280_temperature;BME280_humidity;BME280_pressure;Samples;Min_cycle;Max_cycle;Signal;HPM_P1;HPM_P2
2023/10/19 00:01:24;;;;;;;49.38;26.85;;;;;;;;;;5052651;28;20029;-72
2023/10/19 00:03:49;;;;;;;49.58;25.60;;;;;;;;;;5053857;28;20025;-72
2023/10/19 00:06:17;;;;;;;51.60;26.35;;;;;;;;;;5053622;28;20087;-72
2023/10/19 00:08:43;;;;;;;48.65;25.65;;;;;;;;;;5053561;28;20070;-72
2023/10/19 00:11:09;;;;;;;48.10;25.35;;;;;;;;;;5036214;28;20017;-72
2023/10/19 00:13:36;;;;;;;49.35;25.50;;;;;;;;;;5054048;28;20104;-72
2023/10/19 00:16:07;;;;;;;47.40;25.05;;;;;;;;;;5053795;28;20028;-70
2023/10/19 00:18:34;;;;;;;44.65;25.05;;;;;;;;;;5036715;28;20120;-70
2023/10/19 00:21:05;;;;;;;47.85;25.65;;;;;;;;;;5054088;28;20033;-70
2023/10/19 00:23:31;;;;;;;;;;;;;;;;;;5054425;28;20025;-71
2023/10/19 00:26:05;;;;;;;41.42;24.45;;;;;;;;;;5053864;28;19913;-71
2023/10/19 00:28:35;;;;;;;42.50;23.70;;;;;;;;;;5053758;28;20112;-71
2023/10/19 00:31:04;;;;;;;49.10;26.00;;;;;;;;;;5053548;28;20505;-71
2023/10/19 00:33:29;;;;;;;46.15;25.42;;;;;;;;;;5053611;28;20029;-71
2023/10/19 00:36:07;;;;;;;42.67;24.33;;;;;;;;;;5052348;28;20440;-71
2023/10/19 00:43:44;;;;;;;36.60;21.95;;;;;;;;;;5053264;28;20487;-70
2023/10/19 00:46:22;;;;;;;36.42;21.05;;;;;;;;;;5053387;28;20051;-70
2023/10/19 00:48:49;;;;;;;37.90;22.20;;;;;;;;;;5052458;28;20048;-70
2023/10/19 00:53:58;;;;;;;37.72;20.05;;;;;;;;;;5053340;28;20036;-70
2023/10/19 00:56:32;;;;;;;33.20;20.40;;;;;;;;;;5052231;28;20082;-70
2023/10/19 00:59:07;;;;;;;36.42;20.17;;;;;;;;;;5035732;28;20021;-70
2023/10/19 01:01:36;;;;;;;32.95;19.80;;;;;;;;;;5035183;28;20162;-72
2023/10/19 01:04:04;;;;;;;36.08;20.60;;;;;;;;;;5054216;28;20466;-72
2023/10/19 01:06:31;;;;;;;35.38;21.23;;;;;;;;;;5056994;28;20033;-72
2023/10/19 01:08:57;;;;;;;35.08;22.25;;;;;;;;;;5057139;28;20025;-72
2023/10/19 01:11:28;;;;;;;37.17;21.00;;;;;;;;;;5056845;28;20033;-72
2023/10/19 01:13:53;;;;;;;36.85;21.77;;;;;;;;;;5056435;28;20029;-71
2023/10/19 01:16:22;;;;;;;36.45;21.77;;;;;;;;;;5038540;28;20037;-72
2023/10/19 01:18:48;;;;;;;39.03;22.73;;;;;;;;;;5055951;28;20402;-71
2023/10/19 01:21:18;;;;;;;44.08;23.10;;;;;;;;;;5057084;28;20036;-72
2023/10/19 01:23:44;;;;;;;37.63;21.65;;;;;;;;;;5056614;28;20061;-72
2023/10/19 01:26:10;;;;;;;31.98;19.20;;;;;;;;;;5022125;28;20075;-71
2023/10/19 01:28:43;;;;;;;32.95;19.27;;;;;;;;;;5056764;28;20380;-71
2023/10/19 01:31:16;;;;;;;33.47;19.40;;;;;;;;;;5056451;28;20029;-71
2023/10/19 01:33:45;;;;;;;31.65;18.92;;;;;;;;;;5038765;28;20024;-71
2023/10/19 01:36:11;;;;;;;29.83;16.58;;;;;;;;;;5055533;28;20032;-69
2023/10/19 01:38:37;;;;;;;20.27;14.07;;;;;;;;;;5055290;28;20044;-69
2023/10/19 01:41:15;;;;;;;19.88;13.32;;;;;;;;;;5038553;28;20424;-69
2023/10/19 01:43:42;;;;;;;21.08;14.20;;;;;;;;;;5055975;28;20068;-70
2023/10/19 01:46:12;;;;;;;19.58;13.43;;;;;;;;;;5054644;28;20025;-71
2023/10/19 01:48:40;;;;;;;33.83;18.23;;;;;;;;;;5037954;28;20029;-70
2023/10/19 01:51:06;;;;;;;29.00;16.67;;;;;;;;;;5054619;28;20062;-70
2023/10/19 01:53:48;;;;;;;18.90;12.68;;;;;;;;;;5064598;23;20017;-71
2023/10/19 01:56:14;;;;;;;18.42;12.07;;;;;;;;;;5041041;23;20040;-70
2023/10/19 01:58:40;;;;;;;21.05;12.65;;;;;;;;;;5057680;28;20552;-71
2023/10/19 02:01:19;;;;;;;21.60;13.68;;;;;;;;;;5057966;28;20483;-72
2023/10/19 02:03:44;;;;;;;27.90;13.80;;;;;;;;;;5075007;28;20467;-72
2023/10/19 02:06:19;;;;;;;22.60;13.93;;;;;;;;;;5088013;22;20053;-74
2023/10/19 02:08:45;;;;;;;24.55;13.23;;;;;;;;;;5062721;23;20064;-70
2023/10/19 02:11:17;;;;;;;18.75;12.98;;;;;;;;;;5075434;28;20020;-69
2023/10/19 02:13:46;;;;;;;18.25;12.25;;;;;;;;;;5040627;28;20028;-69
2023/10/19 02:16:12;;;;;;;18.95;13.18;;;;;;;;;;5056788;28;20090;-69
2023/10/19 02:18:38;;;;;;;21.15;13.63;;;;;;;;;;5057284;28;20429;-69
2023/10/19 02:21:06;;;;;;;20.88;13.60;;;;;;;;;;5075384;28;20017;-72
2023/10/19 02:23:34;;;;;;;21.00;13.23;;;;;;;;;;5057184;28;20028;-69
2023/10/19 02:25:59;;;;;;;23.88;13.57;;;;;;;;;;5057817;28;20455;-66
2023/10/19 02:28:31;;;;;;;18.38;12.55;;;;;;;;;;5057620;28;20039;-66
2023/10/19 02:30:57;;;;;;;19.30;13.02;;;;;;;;;;5075399;28;20063;-67
2023/10/19 02:33:22;;;;;;;19.13;13.10;;;;;;;;;;5057006;28;20024;-69
2023/10/19 02:35:48;;;;;;;20.70;13.63;;;;;;;;;;5056414;28;20025;-69
2023/10/19 02:38:13;;;;;;;20.38;13.50;;;;;;;;;;5075076;28;20092;-68
2023/10/19 02:40:39;;;;;;;20.50;13.45;;;;;;;;;;5057292;28;20060;-68
2023/10/19 02:43:04;;;;;;;19.80;13.25;;;;;;;;;;5074821;28;20453;-69
2023/10/19 02:45:30;;;;;;;18.50;13.10;;;;;;;;;;5040250;28;20036;-69
2023/10/19 02:47:58;;;;;;;22.92;13.40;;;;;;;;;;5074612;28;20054;-69
2023/10/19 02:50:26;;;;;;;26.52;14.70;;;;;;;;;;5056847;28;20036;-70
2023/10/19 02:52:53;;;;;;;19.70;13.82;;;;;;;;;;5056832;28;20032;-69
2023/10/19 02:55:20;;;;;;;22.13;14.88;;;;;;;;;;5074844;28;20043;-70
2023/10/19 02:57:46;;;;;;;22.25;14.40;;;;;;;;;;5056808;28;20115;-71
2023/10/19 03:00:14;;;;;;;18.63;13.48;;;;;;;;;;5056277;28;20526;-70
2023/10/19 03:02:40;;;;;;;17.23;12.77;;;;;;;;;;5056858;28;20107;-71
2023/10/19 03:05:14;;;;;;;18.38;13.00;;;;;;;;;;5074375;28;20447;-71
2023/10/19 03:07:43;;;;;;;20.02;13.25;;;;;;;;;;5056193;28;20556;-72
2023/10/19 03:10:22;;;;;;;23.88;14.05;;;;;;;;;;5056266;28;20028;-73
2023/10/19 03:12:49;;;;;;;20.15;13.30;;;;;;;;;;5056948;28;20025;-70
2023/10/19 03:15:15;;;;;;;29.83;18.50;;;;;;;;;;5074468;28;20435;-69
2023/10/19 03:17:40;;;;;;;30.35;18.65;;;;;;;;;;5074184;28;20103;-71
2023/10/19 03:20:06;;;;;;;37.60;25.00;;;;;;;;;;5055880;28;20028;-71
2023/10/19 03:22:33;;;;;;;37.80;23.05;;;;;;;;;;5056517;28;20016;-69
2023/10/19 03:25:12;;;;;;;28.40;20.60;;;;;;;;;;5074250;28;20481;-69
2023/10/19 03:27:40;;;;;;;31.20;19.20;;;;;;;;;;5073640;28;20052;-70
2023/10/19 03:30:06;;;;;;;27.65;17.35;;;;;;;;;;5074130;28;20036;-71
2023/10/19 03:32:32;;;;;;;23.30;17.15;;;;;;;;;;5074409;28;20119;-72
2023/10/19 03:34:59;;;;;;;44.90;24.23;;;;;;;;;;5056110;28;20115;-72
2023/10/19 03:37:29;;;;;;;43.63;24.73;;;;;;;;;;5056312;28;20033;-72
2023/10/19 03:39:57;;;;;;;39.38;20.35;;;;;;;;;;5074426;28;20025;-72
2023/10/19 03:42:26;;;;;;;35.22;19.67;;;;;;;;;;5056075;28;20024;-72
2023/10/19 03:44:55;;;;;;;31.92;17.77;;;;;;;;;;5056083;28;20070;-72
2023/10/19 03:47:25;;;;;;;28.52;18.10;;;;;;;;;;5055676;28;20032;-71
2023/10/19 03:49:50;;;;;;;28.75;18.20;;;;;;;;;;5056116;28;20039;-71
2023/10/19 03:54:41;;;;;;;30.00;17.40;;;;;;;;;;5073987;28;20020;-72
2023/10/19 03:57:29;;;;;;;29.40;17.63;;;;;;;;;;5055821;28;20382;-73
2023/10/19 03:59:58;;;;;;;28.23;17.63;;;;;;;;;;5073879;28;20081;-72
2023/10/19 04:02:24;;;;;;;32.05;17.83;;;;;;;;;;5055398;28;20009;-69
2023/10/19 04:04:50;;;;;;;31.23;18.52;;;;;;;;;;5073893;28;20028;-71
2023/10/19 04:07:25;;;;;;;30.65;19.00;;;;;;;;;;5073362;28;20029;-72
2023/10/19 04:10:04;;;;;;;50.85;28.75;;;;;;;;;;5055844;28;20376;-72
2023/10/19 04:12:30;;;;;;;40.70;21.13;;;;;;;;;;5073336;28;20047;-71
2023/10/19 04:15:09;;;;;;;41.85;25.17;;;;;;;;;;5074052;28;20475;-71
2023/10/19 04:17:36;;;;;;;28.58;17.58;;;;;;;;;;5073433;28;20516;-74
2023/10/19 04:20:11;;;;;;;32.63;17.30;;;;;;;;;;5056146;28;20032;-73
2023/10/19 04:22:36;;;;;;;30.67;17.40;;;;;;;;;;5073694;28;20459;-73
2023/10/19 04:25:06;;;;;;;34.03;18.58;;;;;;;;;;5056460;28;20029;-73
2023/10/19 04:27:35;;;;;;;29.27;17.83;;;;;;;;;;5073697;28;20440;-71
2023/10/19 04:34:07;;;;;;;36.58;19.63;;;;;;;;;;5081703;22;20107;-73
2023/10/19 04:36:33;;;;;;;34.58;19.27;;;;;;;;;;5055698;28;20401;-72
2023/10/19 04:38:59;;;;;;;33.92;19.92;;;;;;;;;;5073910;28;20028;-72
2023/10/19 04:41:27;;;;;;;33.80;20.00;;;;;;;;;;5077455;28;20442;-73
2023/10/19 04:43:54;;;;;;;36.15;22.35;;;;;;;;;;5077109;28;20012;-73
2023/10/19 04:46:19;;;;;;;35.22;22.05;;;;;;;;;;5077351;28;20033;-72
2023/10/19 04:48:45;;;;;;;33.70;21.35;;;;;;;;;;5077268;28;20039;-72
2023/10/19 04:51:10;;;;;;;30.73;20.52;;;;;;;;;;5077210;28;20025;-73
2023/10/19 04:53:36;;;;;;;29.42;19.60;;;;;;;;;;5059337;28;20215;-73
2023/10/19 04:56:03;;;;;;;36.55;21.75;;;;;;;;;;5058809;28;20024;-73
2023/10/19 04:58:29;;;;;;;38.60;23.88;;;;;;;;;;5076814;28;20021;-73
2023/10/19 05:00:54;;;;;;;38.13;23.75;;;;;;;;;;5058930;28;20020;-69
2023/10/19 05:03:19;;;;;;;32.63;21.10;;;;;;;;;;5076769;28;20111;-75
2023/10/19 05:05:45;;;;;;;35.65;18.98;;;;;;;;;;5076677;28;20032;-75
2023/10/19 05:08:11;;;;;;;25.90;16.33;;;;;;;;;;5076673;28;20027;-75
2023/10/19 05:10:37;;;;;;;22.65;14.63;;;;;;;;;;5058831;28;20372;-76
2023/10/19 05:13:03;;;;;;;21.58;14.10;;;;;;;;;;5076611;28;20066;-73
2023/10/19 05:15:28;;;;;;;21.73;14.52;;;;;;;;;;5076437;28;20036;-75
2023/10/19 05:17:54;;;;;;;19.55;12.68;;;;;;;;;;5076290;28;20033;-76
2023/10/19 05:20:20;;;;;;;19.02;13.00;;;;;;;;;;5076415;28;20056;-76
2023/10/19 05:22:46;;;;;;;18.10;12.85;;;;;;;;;;5076601;28;20027;-75
2023/10/19 05:25:11;;;;;;;16.25;12.60;;;;;;;;;;5058568;28;20437;-76
2023/10/19 05:27:37;;;;;;;20.13;13.65;;;;;;;;;;5076819;28;20036;-76
2023/10/19 05:30:04;;;;;;;21.52;14.38;;;;;;;;;;5074650;28;20027;-77
2023/10/19 05:32:30;;;;;;;20.00;12.23;;;;;;;;;;5062947;28;20025;-75
2023/10/19 05:34:56;;;;;;;21.52;13.40;;;;;;;;;;5061258;28;20378;-75
2023/10/19 05:37:22;;;;;;;18.77;12.68;;;;;;;;;;5058149;28;20021;-76
2023/10/19 05:39:51;;;;;;;19.30;12.73;;;;;;;;;;5097677;22;20053;-77
2023/10/19 05:42:17;;;;;;;23.73;16.52;;;;;;;;;;5076139;28;20039;-76
2023/10/19 05:44:42;;;;;;;33.90;22.95;;;;;;;;;;5056109;28;20032;-76
2023/10/19 05:47:07;;;;;;;37.60;24.83;;;;;;;;;;5056057;28;20033;-76
2023/10/19 05:49:33;;;;;;;38.85;26.52;;;;;;;;;;5074025;28;20159;-76
2023/10/19 05:51:59;;;;;;;32.95;22.95;;;;;;;;;;5055260;28;20024;-76
2023/10/19 05:54:24;;;;;;;25.58;18.50;;;;;;;;;;5056488;28;20033;-76
2023/10/19 05:56:50;;;;;;;22.48;16.25;;;;;;;;;;5057023;28;20025;-76
2023/10/19 05:59:15;;;;;;;21.63;14.88;;;;;;;;;;5056923;28;20086;-76
2023/10/19 06:01:41;;;;;;;24.02;15.43;;;;;;;;;;5058084;28;20029;-76
2023/10/19 06:04:06;;;;;;;23.95;16.17;;;;;;;;;;5074742;28;20034;-76
2023/10/19 06:06:32;;;;;;;19.85;14.00;;;;;;;;;;5074907;28;20021;-76
2023/10/19 06:08:57;;;;;;;19.58;14.05;;;;;;;;;;5056867;28;20029;-76
2023/10/19 06:11:23;;;;;;;18.90;13.48;;;;;;;;;;5074368;28;20024;-76
2023/10/19 06:13:48;;;;;;;21.52;13.38;;;;;;;;;;5056543;28;20016;-76
2023/10/19 06:16:14;;;;;;;23.23;13.32;;;;;;;;;;5074588;28;20505;-76
2023/10/19 06:18:39;;;;;;;16.30;11.90;;;;;;;;;;5074450;28;20461;-76
2023/10/19 06:21:05;;;;;;;21.50;12.77;;;;;;;;;;5074500;28;20020;-76
2023/10/19 06:23:34;;;;;;;20.67;13.15;;;;;;;;;;5057072;28;20072;-76
2023/10/19 06:26:08;;;;;;;19.55;12.55;;;;;;;;;;5074315;28;20036;-76
2023/10/19 06:28:38;;;;;;;20.92;12.82;;;;;;;;;;5056557;28;20033;-76
2023/10/19 06:31:04;;;;;;;20.73;13.25;;;;;;;;;;5056324;28;20048;-76
2023/10/19 06:33:32;;;;;;;18.13;12.15;;;;;;;;;;5056144;28;20024;-76
2023/10/19 06:35:59;;;;;;;15.50;11.73;;;;;;;;;;5056058;28;20036;-76
2023/10/19 06:38:25;;;;;;;17.20;11.77;;;;;;;;;;5056105;28;20020;-76
2023/10/19 06:40:51;;;;;;;22.67;12.23;;;;;;;;;;5073685;28;20497;-76
2023/10/19 06:43:17;;;;;;;17.98;11.32;;;;;;;;;;5074057;28;20020;-76
2023/10/19 06:45:44;;;;;;;16.02;11.52;;;;;;;;;;5056331;28;20355;-76
2023/10/19 06:48:11;;;;;;;23.33;13.20;;;;;;;;;;5074232;28;20024;-76
2023/10/19 06:50:36;;;;;;;17.35;11.00;;;;;;;;;;5074017;28;20111;-76
2023/10/19 06:53:05;;;;;;;18.13;11.27;;;;;;;;;;5075760;28;20048;-76
2023/10/19 06:55:31;;;;;;;18.58;11.85;;;;;;;;;;5058498;28;20056;-71
2023/10/19 06:57:57;;;;;;;20.38;12.27;;;;;;;;;;5074415;28;20530;-76
2023/10/19 07:00:26;;;;;;;16.38;11.25;;;;;;;;;;5074234;28;20063;-76
2023/10/19 07:02:52;;;;;;;18.40;12.18;;;;;;;;;;5073797;28;20413;-76
2023/10/19 07:05:20;;;;;;;16.65;11.75;;;;;;;;;;5074700;28;20035;-77
2023/10/19 07:07:46;;;;;;;14.88;10.68;;;;;;;;;;5074520;28;20170;-76
2023/10/19 07:10:12;;;;;;;17.92;11.15;;;;;;;;;;5057268;28;20071;-76
2023/10/19 07:12:42;;;;;;;17.15;11.77;;;;;;;;;;5074690;28;20098;-76
2023/10/19 07:15:08;;;;;;;18.90;11.50;;;;;;;;;;5074015;28;20490;-76
2023/10/19 07:17:34;;;;;;;14.18;10.63;;;;;;;;;;5074373;28;20287;-76
2023/10/19 07:20:00;;;;;;;18.27;11.35;;;;;;;;;;5074163;28;20028;-76
2023/10/19 07:22:25;;;;;;;16.02;10.70;;;;;;;;;;5056210;28;20016;-76
2023/10/19 07:24:51;;;;;;;13.60;9.93;;;;;;;;;;5056333;28;20036;-76
2023/10/19 07:27:19;;;;;;;14.95;10.50;;;;;;;;;;5074069;28;20034;-77
2023/10/19 07:29:47;;;;;;;15.45;10.60;;;;;;;;;;5074586;28;20036;-77
2023/10/19 07:32:13;;;;;;;14.95;10.43;;;;;;;;;;5073852;28;20090;-77
2023/10/19 07:34:39;;;;;;;22.77;12.93;;;;;;;;;;5074143;28;20032;-76
2023/10/19 07:37:05;;;;;;;23.20;14.52;;;;;;;;;;5073975;28;20020;-77
2023/10/19 07:39:33;;;;;;;24.67;14.95;;;;;;;;;;5073974;28;20098;-76
2023/10/19 07:41:59;;;;;;;15.77;11.80;;;;;;;;;;5073855;28;20055;-77
2023/10/19 07:44:25;;;;;;;13.63;10.27;;;;;;;;;;5073927;28;20487;-76
2023/10/19 07:46:51;;;;;;;15.70;10.63;;;;;;;;;;5074131;28;20119;-77
2023/10/19 07:49:16;;;;;;;15.15;10.60;;;;;;;;;;5073777;28;20497;-77
2023/10/19 07:51:46;;;;;;;14.32;10.20;;;;;;;;;;5073976;28;20081;-77
2023/10/19 07:54:12;;;;;;;14.30;9.70;;;;;;;;;;5068222;23;20068;-72
2023/10/19 07:56:37;;;;;;;17.38;11.32;;;;;;;;;;5052296;28;20072;-72
2023/10/19 07:59:03;;;;;;;16.75;11.65;;;;;;;;;;5053463;28;20028;-72
2023/10/19 08:01:28;;;;;;;14.77;10.18;;;;;;;;;;5052255;28;20045;-72
2023/10/19 08:03:54;;;;;;;15.48;10.85;;;;;;;;;;5053537;28;20137;-72
2023/10/19 08:06:20;;;;;;;15.90;10.55;;;;;;;;;;5053792;28;20029;-72
2023/10/19 08:08:46;;;;;;;15.18;10.88;;;;;;;;;;5053782;28;20483;-72
2023/10/19 08:11:12;;;;;;;17.65;10.90;;;;;;;;;;5052601;28;20033;-71
2023/10/19 08:13:38;;;;;;;16.73;10.88;;;;;;;;;;5053868;28;20071;-72
2023/10/19 08:16:06;;;;;;;14.02;9.45;;;;;;;;;;5056332;28;20065;-72
2023/10/19 08:18:35;;;;;;;13.35;10.15;;;;;;;;;;5057598;28;20033;-72
2023/10/19 08:21:01;;;;;;;15.52;10.63;;;;;;;;;;5057557;28;20021;-72
2023/10/19 08:23:27;;;;;;;16.88;10.68;;;;;;;;;;5058059;28;20028;-72
2023/10/19 08:25:53;;;;;;;13.18;9.60;;;;;;;;;;5057733;28;20036;-72
2023/10/19 08:28:18;;;;;;;13.02;9.43;;;;;;;;;;5057678;28;20040;-71
2023/10/19 08:30:45;;;;;;;15.55;9.27;;;;;;;;;;5056076;28;20032;-71
2023/10/19 08:33:13;;;;;;;11.60;9.10;;;;;;;;;;5056438;28;20029;-72
2023/10/19 08:35:41;;;;;;;12.45;9.52;;;;;;;;;;5057240;28;20055;-72
2023/10/19 08:38:11;;;;;;;15.35;9.43;;;;;;;;;;5057196;28;20479;-72
2023/10/19 08:40:36;;;;;;;;;;;;;;;;;;5056360;28;20100;-72
2023/10/19 08:43:04;;;;;;;14.95;10.70;;;;;;;;;;5057005;28;20008;-72
2023/10/19 08:45:30;;;;;;;11.27;8.50;;;;;;;;;;5056109;28;20490;-72
2023/10/19 08:47:56;;;;;;;13.90;10.63;;;;;;;;;;5057358;28;20471;-71
2023/10/19 08:50:24;;;;;;;17.90;11.02;;;;;;;;;;5057186;28;20568;-72
2023/10/19 08:52:52;;;;;;;15.27;10.07;;;;;;;;;;5055285;28;20036;-72
2023/10/19 08:55:17;;;;;;;13.70;9.38;;;;;;;;;;5091008;28;20035;-72
2023/10/19 08:57:43;;;;;;;19.95;11.77;;;;;;;;;;5097401;28;20481;-72
2023/10/19 09:00:09;;;;;;;18.98;10.80;;;;;;;;;;5097412;28;20470;-72
2023/10/19 09:02:35;;;;;;;16.17;9.75;;;;;;;;;;5078659;28;20092;-72
2023/10/19 09:05:06;;;;;;;13.85;9.18;;;;;;;;;;5096959;28;20098;-72
2023/10/19 09:10:05;;;;;;;12.35;9.68;;;;;;;;;;5055411;28;20037;-76
2023/10/19 09:12:31;;;;;;;13.65;10.32;;;;;;;;;;5055733;28;20033;-77
2023/10/19 09:14:56;;;;;;;13.30;9.60;;;;;;;;;;5056798;28;20033;-76
2023/10/19 09:17:29;;;;;;;16.23;10.20;;;;;;;;;;5055642;28;20032;-76
2023/10/19 09:19:56;;;;;;;13.10;8.48;;;;;;;;;;5055971;28;20017;-77
2023/10/19 09:22:24;;;;;;;12.13;9.00;;;;;;;;;;5056905;28;20025;-77
2023/10/19 09:24:51;;;;;;;18.65;11.98;;;;;;;;;;5057035;28;20052;-76
2023/10/19 09:27:17;;;;;;;20.88;13.10;;;;;;;;;;5055865;28;20104;-76
2023/10/19 09:29:42;;;;;;;17.80;10.27;;;;;;;;;;5056627;28;20037;-75
2023/10/19 09:32:08;;;;;;;20.20;12.20;;;;;;;;;;5053481;28;20020;-75
2023/10/19 09:34:34;;;;;;;15.18;9.52;;;;;;;;;;5055509;28;20033;-75
2023/10/19 09:37:03;;;;;;;16.85;9.93;;;;;;;;;;5056452;28;20375;-75
2023/10/19 09:39:34;;;;;;;18.48;10.20;;;;;;;;;;5056089;28;20029;-75
2023/10/19 09:42:10;;;;;;;14.27;9.40;;;;;;;;;;5056561;28;20033;-75
2023/10/19 09:44:47;;;;;;;15.73;10.05;;;;;;;;;;5055939;28;20029;-75
2023/10/19 09:47:23;;;;;;;15.52;11.55;;;;;;;;;;5055931;28;20067;-75
2023/10/19 09:49:50;;;;;;;13.52;9.45;;;;;;;;;;5055984;28;20021;-75
2023/10/19 09:52:16;;;;;;;12.27;8.68;;;;;;;;;;5056061;28;20029;-74
2023/10/19 09:54:54;;;;;;;14.88;10.15;;;;;;;;;;5055788;28;20040;-75
2023/10/19 09:57:40;;;;;;;16.02;10.02;;;;;;;;;;5055994;28;20078;-75
2023/10/19 10:00:23;;;;;;;17.80;10.65;;;;;;;;;;5055084;28;20037;-75
2023/10/19 10:02:49;;;;;;;12.02;8.63;;;;;;;;;;5056198;28;20021;-75
2023/10/19 10:05:33;;;;;;;12.05;8.23;;;;;;;;;;5055656;28;20151;-75
2023/10/19 10:08:17;;;;;;;14.90;9.35;;;;;;;;;;5055412;28;20036;-75
2023/10/19 10:10:42;;;;;;;19.05;14.55;;;;;;;;;;5055579;28;20045;-75
2023/10/19 10:13:33;;;;;;;11.15;8.35;;;;;;;;;;5037894;28;20082;-75
2023/10/19 10:16:00;;;;;;;;;;;;;;;;;;5054467;28;20033;-75
2023/10/19 10:18:26;;;;;;;12.48;8.05;;;;;;;;;;5056064;28;19911;-75
2023/10/19 10:21:10;;;;;;;15.57;10.18;;;;;;;;;;5055608;28;20356;-75
2023/10/19 10:23:40;;;;;;;11.98;8.52;;;;;;;;;;5054004;28;20029;-75
2023/10/19 10:26:08;;;;;;;13.60;9.50;;;;;;;;;;5054307;28;20033;-75
2023/10/19 10:28:33;;;;;;;12.65;8.38;;;;;;;;;;5055430;28;20087;-75
2023/10/19 10:31:08;;;;;;;10.15;7.97;;;;;;;;;;5036372;28;20049;-75
2023/10/19 10:33:47;;;;;;;13.43;8.77;;;;;;;;;;5055080;28;20033;-75
2023/10/19 10:36:13;;;;;;;13.55;8.82;;;;;;;;;;5054615;28;20479;-75
2023/10/19 10:38:40;;;;;;;17.83;10.23;;;;;;;;;;5054388;28;20017;-75
2023/10/19 10:41:09;;;;;;;12.40;8.07;;;;;;;;;;5054795;28;20052;-75
2023/10/19 10:43:49;;;;;;;13.65;8.05;;;;;;;;;;5055161;28;20029;-74
2023/10/19 10:46:15;;;;;;;12.45;8.15;;;;;;;;;;5037334;28;20047;-75
2023/10/19 10:48:43;;;;;;;14.38;9.20;;;;;;;;;;5054801;28;20499;-75
2023/10/19 10:51:25;;;;;;;10.18;8.20;;;;;;;;;;5055652;28;20037;-74
2023/10/19 10:53:52;;;;;;;14.52;10.73;;;;;;;;;;5054964;28;20050;-75
2023/10/19 10:56:18;;;;;;;15.70;9.75;;;;;;;;;;5054384;28;20041;-75
2023/10/19 10:58:44;;;;;;;12.30;9.60;;;;;;;;;;5054026;28;20375;-75
2023/10/19 11:01:11;;;;;;;11.93;9.48;;;;;;;;;;5053637;28;20037;-75
2023/10/19 11:03:42;;;;;;;9.73;7.35;;;;;;;;;;5052823;28;20074;-75
2023/10/19 11:06:08;;;;;;;15.32;9.43;;;;;;;;;;5052494;28;20033;-71
2023/10/19 11:08:34;;;;;;;13.88;9.52;;;;;;;;;;5034554;28;20053;-71
2023/10/19 11:11:04;;;;;;;14.40;10.40;;;;;;;;;;5053022;28;20025;-71
2023/10/19 11:13:32;;;;;;;16.43;9.60;;;;;;;;;;5053310;28;20468;-71
2023/10/19 11:15:58;;;;;;;13.48;8.95;;;;;;;;;;5054445;28;20364;-71
2023/10/19 11:18:32;;;;;;;12.40;8.57;;;;;;;;;;5054702;28;20025;-70
2023/10/19 11:20:59;;;;;;;14.10;10.32;;;;;;;;;;5054678;28;20111;-71
2023/10/19 11:23:35;;;;;;;14.60;9.68;;;;;;;;;;5036245;28;20024;-71
2023/10/19 11:26:02;;;;;;;12.00;9.27;;;;;;;;;;5054148;28;20468;-71
2023/10/19 11:28:28;;;;;;;11.68;7.72;;;;;;;;;;5053953;28;20037;-71
2023/10/19 11:30:54;;;;;;;29.35;17.88;;;;;;;;;;5053583;28;20123;-71
2023/10/19 11:33:24;;;;;;;13.50;9.40;;;;;;;;;;5053302;28;20061;-71
2023/10/19 11:35:50;;;;;;;14.77;9.45;;;;;;;;;;5052394;28;20035;-70
2023/10/19 11:38:16;;;;;;;13.30;9.63;;;;;;;;;;5052878;28;20025;-74
2023/10/19 11:40:41;;;;;;;14.35;9.00;;;;;;;;;;5052616;28;20047;-71
2023/10/19 11:43:07;;;;;;;13.40;9.30;;;;;;;;;;5052072;28;20467;-71
2023/10/19 11:45:32;;;;;;;15.68;9.77;;;;;;;;;;5052783;28;20055;-70
2023/10/19 11:47:57;;;;;;;17.52;10.27;;;;;;;;;;5053119;28;20078;-71
2023/10/19 11:50:24;;;;;;;15.00;11.10;;;;;;;;;;5053037;28;20083;-66
2023/10/19 11:52:49;;;;;;;19.23;11.82;;;;;;;;;;5053437;28;20017;-67
2023/10/19 11:55:15;;;;;;;16.80;10.23;;;;;;;;;;5053394;28;20462;-66
2023/10/19 11:57:44;;;;;;;16.23;10.30;;;;;;;;;;5035618;28;20028;-67
2023/10/19 12:00:21;;;;;;;14.90;9.88;;;;;;;;;;5053909;28;20386;-67
2023/10/19 12:02:47;;;;;;;15.02;9.50;;;;;;;;;;5054002;28;20131;-66
2023/10/19 12:05:12;;;;;;;15.43;11.15;;;;;;;;;;5052435;28;20037;-67
2023/10/19 12:07:38;;;;;;;27.67;16.88;;;;;;;;;;5053325;28;20028;-67
2023/10/19 12:10:12;;;;;;;31.38;18.83;;;;;;;;;;5052401;28;20421;-67
2023/10/19 12:12:37;;;;;;;34.92;20.55;;;;;;;;;;5054024;28;20069;-67
2023/10/19 12:15:05;;;;;;;31.92;19.20;;;;;;;;;;5035646;28;20419;-67
2023/10/19 12:17:31;;;;;;;50.65;31.70;;;;;;;;;;5036174;28;20447;-67
2023/10/19 12:19:56;;;;;;;35.40;27.33;;;;;;;;;;5053678;28;20032;-67
2023/10/19 12:22:21;;;;;;;30.90;21.13;;;;;;;;;;5053395;28;20466;-67
2023/10/19 12:24:48;;;;;;;30.50;19.90;;;;;;;;;;5053296;28;20025;-67
2023/10/19 12:27:14;;;;;;;32.97;22.70;;;;;;;;;;5052062;28;20033;-67
2023/10/19 12:29:39;;;;;;;31.13;16.58;;;;;;;;;;5035540;28;20040;-67
2023/10/19 12:32:05;;;;;;;29.50;20.35;;;;;;;;;;5053529;28;20461;-66
2023/10/19 12:34:31;;;;;;;30.15;21.10;;;;;;;;;;5052353;28;20459;-67
2023/10/19 12:36:58;;;;;;;62.35;40.60;;;;;;;;;;5053733;28;20021;-67
2023/10/19 12:39:39;;;;;;;58.03;34.00;;;;;;;;;;5053608;28;20083;-67
2023/10/19 12:42:07;;;;;;;40.67;26.75;;;;;;;;;;5053191;28;20028;-67
2023/10/19 12:44:38;;;;;;;44.08;25.88;;;;;;;;;;5053628;28;20112;-74
2023/10/19 12:47:09;;;;;;;40.85;27.23;;;;;;;;;;5052042;28;20075;-74
2023/10/19 12:49:35;;;;;;;33.83;22.02;;;;;;;;;;5052032;28;20029;-75
2023/10/19 12:52:03;;;;;;;42.95;25.25;;;;;;;;;;5053353;28;20025;-74
2023/10/19 12:54:28;;;;;;;32.75;23.08;;;;;;;;;;5035596;28;20116;-74
2023/10/19 12:56:54;;;;;;;44.63;31.33;;;;;;;;;;5053337;28;20049;-74
2023/10/19 12:59:19;;;;;;;82.93;55.20;;;;;;;;;;5052024;28;20064;-74
2023/10/19 13:01:48;;;;;;;118.32;87.95;;;;;;;;;;5055750;28;20025;-74
2023/10/19 13:04:16;;;;;;;54.40;38.60;;;;;;;;;;5038438;28;20039;-74
2023/10/19 13:06:41;;;;;;;80.47;56.53;;;;;;;;;;5056231;28;20062;-74
2023/10/19 13:09:09;;;;;;;72.85;46.70;;;;;;;;;;5056099;28;20132;-75
2023/10/19 13:11:34;;;;;;;49.17;33.42;;;;;;;;;;5056233;28;20028;-67
2023/10/19 13:14:00;;;;;;;44.60;33.22;;;;;;;;;;5056039;28;20013;-66
2023/10/19 13:16:27;;;;;;;37.85;24.08;;;;;;;;;;5056481;28;20033;-67
2023/10/19 13:18:53;;;;;;;25.40;16.92;;;;;;;;;;5056782;28;20050;-67
2023/10/19 13:21:22;;;;;;;39.55;23.83;;;;;;;;;;5056922;28;20029;-69
2023/10/19 13:23:48;;;;;;;43.50;29.55;;;;;;;;;;5055465;28;20027;-68
2023/10/19 13:26:20;;;;;;;57.47;37.05;;;;;;;;;;5056374;28;20041;-71
2023/10/19 13:28:46;;;;;;;20.92;14.80;;;;;;;;;;5056308;28;20107;-66
2023/10/19 13:31:15;;;;;;;42.38;27.50;;;;;;;;;;5055652;28;20163;-66
2023/10/19 13:33:41;;;;;;;69.20;42.63;;;;;;;;;;5056255;28;20107;-67
2023/10/19 13:36:07;;;;;;;99.80;60.03;;;;;;;;;;5056252;28;20347;-67
2023/10/19 13:38:35;;;;;;;124.38;79.25;;;;;;;;;;5056396;28;20037;-67
2023/10/19 13:41:07;;;;;;;239.77;138.75;;;;;;;;;;5056311;28;20025;-66
2023/10/19 13:43:33;;;;;;;155.90;84.85;;;;;;;;;;5056270;28;20033;-67
2023/10/19 13:45:59;;;;;;;20.55;13.93;;;;;;;;;;5056358;28;20120;-67
2023/10/19 13:48:25;;;;;;;53.13;30.27;;;;;;;;;;5056018;28;20453;-67
2023/10/19 13:50:53;;;;;;;76.85;42.85;;;;;;;;;;5056233;28;20116;-66
2023/10/19 13:53:18;;;;;;;40.65;30.65;;;;;;;;;;5056239;28;20037;-66
2023/10/19 13:55:44;;;;;;;31.40;20.75;;;;;;;;;;5055826;28;20028;-66
2023/10/19 13:58:10;;;;;;;107.45;61.83;;;;;;;;;;5055757;28;20112;-66
2023/10/19 14:03:04;;;;;;;69.43;45.42;;;;;;;;;;5055968;28;20056;-66
2023/10/19 14:05:36;;;;;;;48.20;32.45;;;;;;;;;;5037636;28;20063;-67
2023/10/19 14:08:03;;;;;;;34.85;23.65;;;;;;;;;;5055194;28;20128;-66
2023/10/19 14:10:29;;;;;;;48.35;30.70;;;;;;;;;;5037215;28;20383;-66
2023/10/19 14:12:55;;;;;;;24.95;19.17;;;;;;;;;;5036386;28;20037;-67
2023/10/19 14:15:20;;;;;;;36.42;23.15;;;;;;;;;;5055133;28;20037;-66
2023/10/19 14:17:49;;;;;;;28.73;20.02;;;;;;;;;;5053357;28;20036;-67
2023/10/19 14:20:15;;;;;;;60.38;34.50;;;;;;;;;;5054393;28;20451;-68
2023/10/19 14:22:43;;;;;;;58.83;38.90;;;;;;;;;;5053444;28;20056;-68
2023/10/19 14:25:12;;;;;;;33.35;22.63;;;;;;;;;;5053220;28;20134;-67
2023/10/19 14:27:44;;;;;;;31.58;21.73;;;;;;;;;;5053002;28;20591;-67
2023/10/19 14:30:12;;;;;;;33.28;23.95;;;;;;;;;;5053880;28;20037;-68
2023/10/19 14:32:38;;;;;;;28.60;19.25;;;;;;;;;;5053694;28;20542;-68
2023/10/19 14:35:05;;;;;;;41.65;25.13;;;;;;;;;;5052150;28;20029;-68
2023/10/19 14:37:31;;;;;;;59.67;36.60;;;;;;;;;;5052958;28;20596;-67
2023/10/19 14:39:58;;;;;;;84.00;56.17;;;;;;;;;;5054494;28;20103;-67
2023/10/19 14:42:24;;;;;;;58.90;35.78;;;;;;;;;;5054120;28;20489;-67
2023/10/19 14:44:51;;;;;;;35.10;25.05;;;;;;;;;;5052922;28;20025;-67